Time;durP1;ratioP1;P1;durP2;ratioP2;P2;SDS_P1;SDS_P2;PMS_P1;PMS_P2;Temp;Humidity;BMP_temperature;BMP_pressure;BME280_temperature;BME280_humidity;BME280_pressure;Samples;Min_cycle;Max_cycle;Signal;HPM_P1;HPM_P2
2022/10/25 00:00:00;;;;;;;12.75;6.30;;;;;;;11.05;100.00;100832.69;2089634;28;20040;-75
2022/10/25 00:01:02;;;;;;;11.57;6.00;;;;;;;11.05;100.00;100827.34;2088784;28;25553;-74
2022/10/25 00:02:04;;;;;;;14.07;6.28;;;;;;;11.08;100.00;100824.53;2088827;28;37970;-75
2022/10/25 00:03:08;;;;;;;15.52;5.85;;;;;;;11.08;100.00;100827.22;2086946;28;37529;-74
2022/10/25 00:04:10;;;;;;;13.02;5.90;;;;;;;11.15;100.00;100832.44;2087596;28;33619;-74
2022/10/25 00:05:15;;;;;;;11.98;6.00;;;;;;;11.19;100.00;100834.97;2088094;28;38511;-75
2022/10/25 00:06:17;;;;;;;12.73;6.28;;;;;;;11.18;100.00;100827.88;2088404;28;29966;-74
2022/10/25 00:07:18;;;;;;;13.15;5.70;;;;;;;11.22;100.00;100832.22;2088585;28;38859;-74
2022/10/25 00:08:20;;;;;;;16.13;5.95;;;;;;;11.28;100.00;100824.00;2089038;28;29702;-75
2022/10/25 00:09:22;;;;;;;13.82;5.35;;;;;;;11.25;100.00;100829.47;2088242;28;33036;-74
2022/10/25 00:10:23;;;;;;;11.85;5.63;;;;;;;11.28;100.00;100823.13;2088967;28;33772;-75
2022/10/25 00:11:29;;;;;;;12.90;5.53;;;;;;;11.30;100.00;100826.63;2088493;28;36046;-75
2022/10/25 00:12:33;;;;;;;11.82;5.30;;;;;;;11.35;100.00;100823.84;2088728;28;29741;-75
2022/10/25 00:13:35;;;;;;;10.60;5.32;;;;;;;11.35;100.00;100827.41;2088127;28;20041;-74
2022/10/25 00:14:37;;;;;;;13.73;5.43;;;;;;;11.36;100.00;100830.94;2088516;28;30023;-74
2022/10/25 00:15:42;;;;;;;14.50;5.60;;;;;;;11.39;100.00;100826.38;2088816;28;33376;-75
2022/10/25 00:16:43;;;;;;;14.23;5.43;;;;;;;11.40;100.00;100825.47;2089554;28;20799;-74
2022/10/25 00:17:48;;;;;;;11.13;5.15;;;;;;;11.43;100.00;100830.75;2088485;28;38549;-74
2022/10/25 00:18:52;;;;;;;9.60;4.82;;;;;;;11.46;100.00;100827.09;2088765;28;31322;-74
2022/10/25 00:19:54;;;;;;;13.88;5.88;;;;;;;11.50;100.00;100828.75;2087837;28;29641;-75
2022/10/25 00:21:03;;;;;;;13.30;5.50;;;;;;;11.58;100.00;100831.25;2088525;28;20048;-74
2022/10/25 00:22:05;;;;;;;12.50;5.63;;;;;;;11.60;100.00;100834.75;2088167;28;23902;-74
2022/10/25 00:23:07;;;;;;;15.35;5.85;;;;;;;11.63;100.00;100834.66;2088566;28;36171;-75
2022/10/25 00:24:12;;;;;;;13.63;6.03;;;;;;;11.64;100.00;100826.56;2089202;28;20926;-75
2022/10/25 00:25:14;;;;;;;11.85;5.63;;;;;;;11.65;100.00;100833.69;2088981;28;30817;-74
2022/10/25 00:26:15;;;;;;;13.55;5.82;;;;;;;11.70;100.00;100830.88;2087819;28;32045;-75
2022/10/25 00:27:17;;;;;;;14.55;6.53;;;;;;;11.75;100.00;100828.91;2080077;28;32909;-75
2022/10/25 00:28:19;;;;;;;13.82;6.72;;;;;;;11.75;100.00;100834.28;2088278;28;27630;-75
2022/10/25 00:29:20;;;;;;;12.15;6.03;;;;;;;11.76;100.00;100832.50;2088744;28;32807;-74
2022/10/25 00:30:27;;;;;;;12.77;6.63;;;;;;;11.81;100.00;100842.16;2088826;28;20038;-75
2022/10/25 00:31:37;;;;;;;14.80;6.57;;;;;;;11.80;100.00;100832.34;2096876;28;20103;-74
2022/10/25 00:32:38;;;;;;;14.52;7.63;;;;;;;11.83;100.00;100832.25;2095877;28;32590;-74
2022/10/25 00:33:42;;;;;;;14.98;6.88;;;;;;;11.84;100.00;100830.44;2088855;28;28489;-74
2022/10/25 00:34:43;;;;;;;12.60;6.47;;;;;;;11.87;100.00;100834.88;2087494;28;34242;-74
2022/10/25 00:35:45;;;;;;;17.88;7.45;;;;;;;11.90;100.00;100837.44;2087531;28;20962;-74
2022/10/25 00:36:47;;;;;;;13.82;7.40;;;;;;;11.88;100.00;100839.28;2087623;28;39271;-75
2022/10/25 00:37:49;;;;;;;13.48;7.57;;;;;;;11.89;100.00;100833.88;2088270;28;33196;-74
2022/10/25 00:38:52;;;;;;;12.98;7.38;;;;;;;11.89;100.00;100841.06;2080306;28;35021;-74
2022/10/25 00:39:54;;;;;;;14.63;7.85;;;;;;;11.89;100.00;100838.38;2080455;28;35151;-74
2022/10/25 00:40:58;;;;;;;13.68;8.32;;;;;;;11.91;100.00;100837.41;2080813;28;20050;-75
2022/10/25 00:42:00;;;;;;;13.40;7.53;;;;;;;11.92;100.00;100841.88;2080703;28;30422;-74
2022/10/25 00:43:01;;;;;;;13.57;8.38;;;;;;;11.95;100.00;100840.91;2080077;28;31860;-74
2022/10/25 00:44:37;;;;;;;14.00;8.68;;;;;;;11.99;100.00;100838.09;2080378;28;35817;-74
2022/10/25 00:45:38;;;;;;;16.77;8.57;;;;;;;11.99;100.00;100842.56;2079962;28;40260;-74
2022/10/25 00:46:43;;;;;;;18.15;8.02;;;;;;;11.97;100.00;100844.41;2080627;28;31401;-75
2022/10/25 00:48:10;;;;;;;16.02;8.25;;;;;;;11.98;100.00;100849.72;2071427;28;33004;-74
2022/10/25 00:49:20;;;;;;;14.63;8.65;;;;;;;12.00;100.00;100844.31;2075793;28;39808;-75
2022/10/25 00:50:33;;;;;;;17.50;8.40;;;;;;;12.02;100.00;100843.38;2079530;28;36162;-74
2022/10/25 00:51:47;;;;;;;14.95;8.35;;;;;;;12.04;100.00;100848.66;2080270;28;20950;-74
2022/10/25 00:52:53;;;;;;;19.58;9.05;;;;;;;12.05;100.00;100834.31;2079732;28;38963;-75
2022/10/25 00:53:58;;;;;;;17.00;9.07;;;;;;;12.07;100.00;100845.88;2079906;28;36822;-75
2022/10/25 00:55:04;;;;;;;14.88;8.57;;;;;;;12.07;100.00;100845.03;2080285;28;38735;-75
2022/10/25 00:56:25;;;;;;;18.00;9.43;;;;;;;12.08;100.00;100852.13;2079774;28;27484;-75
2022/10/25 00:57:36;;;;;;;17.50;10.23;;;;;;;12.08;100.00;100842.28;2080518;28;20034;-75
2022/10/25 00:58:43;;;;;;;20.33;10.30;;;;;;;12.08;100.00;100838.72;2088008;28;20041;-75
2022/10/25 00:59:46;;;;;;;14.05;9.55;;;;;;;12.07;100.00;100843.22;2085781;28;33835;-75
2022/10/25 01:00:47;;;;;;;17.23;9.48;;;;;;;12.08;100.00;100855.72;2079433;28;36724;-75
2022/10/25 01:01:53;;;;;;;16.10;9.75;;;;;;;12.07;100.00;100843.22;2081003;28;20049;-75
2022/10/25 01:02:55;;;;;;;15.18;9.45;;;;;;;12.08;100.00;100849.44;2079801;28;37774;-75
2022/10/25 01:04:07;;;;;;;21.50;11.07;;;;;;;12.06;100.00;100837.88;2072690;28;20046;-76
2022/10/25 01:05:09;;;;;;;16.77;10.73;;;;;;;12.07;100.00;100853.06;2072538;28;30013;-75
2022/10/25 01:06:25;;;;;;;16.75;10.65;;;;;;;12.05;100.00;100846.88;2079577;28;30709;-75
2022/10/25 01:07:26;;;;;;;16.73;10.90;;;;;;;12.04;100.00;100845.97;2087795;28;30930;-75
2022/10/25 01:08:28;;;;;;;16.80;10.18;;;;;;;12.00;100.00;100850.56;2086653;28;32670;-76
2022/10/25 01:09:34;;;;;;;25.00;11.30;;;;;;;11.99;100.00;100847.94;2087903;28;32937;-75
2022/10/25 01:10:37;;;;;;;17.38;11.23;;;;;;;11.97;100.00;100841.72;2079636;28;35968;-76
2022/10/25 01:11:39;;;;;;;14.55;10.30;;;;;;;11.95;100.00;100851.63;2080268;28;38044;-76
2022/10/25 01:12:43;;;;;;;18.08;11.63;;;;;;;11.95;100.00;100851.63;2087500;28;29602;-75
2022/10/25 01:13:50;;;;;;;18.90;11.07;;;;;;;11.93;100.00;100853.47;2080073;28;33534;-75
2022/10/25 01:14:53;;;;;;;28.02;12.85;;;;;;;11.94;100.00;100860.63;2080958;28;23380;-76
2022/10/25 01:16:31;;;;;;;20.40;12.27;;;;;;;12.00;100.00;100849.69;2079374;28;35172;-75
2022/10/25 01:18:01;;;;;;;18.73;11.18;;;;;;;12.02;100.00;100851.41;2073203;28;35741;-76
2022/10/25 01:19:15;;;;;;;;;;;;;;;12.01;100.00;100849.66;2079698;28;36504;-76
2022/10/25 01:21:00;;;;;;;16.33;10.40;;;;;;;12.02;100.00;100853.19;2079646;28;40282;-76
2022/10/25 01:22:13;;;;;;;14.25;9.82;;;;;;;12.01;100.00;100849.66;2087698;28;34515;-75
2022/10/25 01:23:36;;;;;;;18.88;10.98;;;;;;;12.02;100.00;100847.84;2087955;28;34178;-75
2022/10/25 01:25:04;;;;;;;18.42;10.57;;;;;;;12.00;100.00;100850.56;2088306;28;20167;-76
2022/10/25 01:26:21;;;;;;;19.05;11.82;;;;;;;12.03;100.00;100846.91;2083074;28;36473;-75
2022/10/25 01:27:56;;;;;;;22.52;12.38;;;;;;;12.02;100.00;100854.09;2080659;28;20038;-75
2022/10/25 01:29:25;;;;;;;20.27;11.90;;;;;;;12.03;100.00;100849.59;2085956;28;20049;-76
2022/10/25 01:30:53;;;;;;;20.80;11.80;;;;;;;12.02;100.00;100847.84;2088281;28;20045;-75
2022/10/25 01:32:21;;;;;;;18.95;11.52;;;;;;;12.01;100.00;100848.78;2088374;28;37505;-76
2022/10/25 01:33:39;;;;;;;23.40;11.32;;;;;;;11.99;100.00;100847.94;2089108;28;20038;-76
2022/10/25 01:35:20;;;;;;;19.00;11.65;;;;;;;11.94;100.00;100850.75;2088263;28;35653;-76
2022/10/25 01:36:52;;;;;;;16.08;10.73;;;;;;;11.90;100.00;100851.78;2078913;28;38171;-75
2022/10/25 01:38:25;;;;;;;23.50;12.38;;;;;;;11.87;100.00;100848.28;2088635;28;36572;-75
2022/10/25 01:39:39;;;;;;;19.63;12.20;;;;;;;11.83;100.00;100847.50;2087955;28;35996;-75
2022/10/25 01:41:16;;;;;;;20.70;12.00;;;;;;;11.80;100.00;100847.56;2087629;28;33604;-75
2022/10/25 01:43:08;;;;;;;19.85;11.32;;;;;;;11.73;100.00;100852.22;2093924;28;33933;-75
2022/10/25 01:44:34;;;;;;;19.83;12.05;;;;;;;11.70;100.00;100852.34;2079293;28;30570;-76
2022/10/25 01:45:59;;;;;;;19.63;11.98;;;;;;;11.64;100.00;100853.38;2089009;28;20388;-76
2022/10/25 01:47:45;;;;;;;19.55;12.40;;;;;;;11.63;100.00;100851.63;2087726;28;39850;-76
2022/10/25 01:48:56;;;;;;;21.27;12.07;;;;;;;11.60;100.00;100842.78;2078718;28;28311;-76
2022/10/25 01:50:27;;;;;;;21.60;12.43;;;;;;;11.56;100.00;100852.72;2087761;28;35510;-75
2022/10/25 01:51:29;;;;;;;17.20;12.13;;;;;;;11.52;100.00;100844.81;2092915;28;32492;-76
2022/10/25 01:52:31;;;;;;;21.13;13.32;;;;;;;11.55;100.00;100855.44;2094459;28;39575;-76
2022/10/25 01:53:32;;;;;;;23.00;13.55;;;;;;;11.51;100.00;100849.28;2087931;28;34014;-76
2022/10/25 01:54:35;;;;;;;21.20;12.88;;;;;;;11.54;100.00;100851.91;2088101;28;40138;-75
2022/10/25 01:55:56;;;;;;;20.58;12.30;;;;;;;11.53;100.00;100843.91;2087613;28;30461;-76
2022/10/25 01:57:19;;;;;;;22.75;13.02;;;;;;;11.49;100.00;100847.59;2090744;28;36528;-74
2022/10/25 01:59:03;;;;;;;20.30;12.82;;;;;;;11.42;100.00;100853.09;2091251;28;36509;-76
2022/10/25 02:00:07;;;;;;;21.35;12.25;;;;;;;11.38;100.00;100851.44;2077327;28;34288;-75
2022/10/25 02:01:58;;;;;;;21.23;13.25;;;;;;;11.40;100.00;100856.75;2097194;28;20143;-75
2022/10/25 02:03:29;;;;;;;20.67;13.18;;;;;;;11.37;100.00;100852.34;2096657;28;31261;-75
2022/10/25 02:04:52;;;;;;;19.92;13.00;;;;;;;11.34;100.00;100857.81;2096177;28;33601;-75
2022/10/25 02:06:13;;;;;;;23.60;13.63;;;;;;;11.34;100.00;100863.19;2096384;28;20044;-75
2022/10/25 02:07:37;;;;;;;23.05;13.63;;;;;;;11.34;100.00;100854.25;2092934;28;39575;-76
2022/10/25 02:09:21;;;;;;;23.25;13.38;;;;;;;11.33;100.00;100861.41;2096731;28;20056;-75
2022/10/25 02:10:40;;;;;;;23.83;14.15;;;;;;;11.28;100.00;100857.97;2095218;28;40052;-75
2022/10/25 02:11:42;;;;;;;20.45;13.73;;;;;;;11.30;100.00;100864.16;2093754;28;33411;-75
2022/10/25 02:12:46;;;;;;;21.08;13.48;;;;;;;11.29;100.00;100859.75;2095380;28;29871;-75
2022/10/25 02:14:18;;;;;;;27.70;13.73;;;;;;;11.30;100.00;100874.88;2092667;28;33148;-75
2022/10/25 02:16:08;;;;;;;23.50;13.93;;;;;;;11.36;100.00;100873.84;2080593;28;33252;-75
2022/10/25 02:17:18;;;;;;;22.88;13.43;;;;;;;11.39;100.00;100868.41;2087789;28;27408;-75
2022/10/25 02:18:24;;;;;;;23.85;13.82;;;;;;;11.42;100.00;100871.88;2087426;28;38068;-75
2022/10/25 02:19:37;;;;;;;22.35;13.18;;;;;;;11.47;100.00;100861.03;2087218;28;37238;-75
2022/10/25 02:20:40;;;;;;;21.60;13.52;;;;;;;11.50;100.00;100870.78;2087725;28;31179;-75
2022/10/25 02:21:47;;;;;;;21.75;13.32;;;;;;;11.53;100.00;100865.34;2087171;28;35000;-75
2022/10/25 02:22:51;;;;;;;24.05;13.90;;;;;;;11.54;100.00;100877.81;2079003;28;37775;-76
2022/10/25 02:23:56;;;;;;;19.75;12.30;;;;;;;11.55;100.00;100871.53;2079877;28;33373;-75
2022/10/25 02:25:00;;;;;;;19.77;12.23;;;;;;;11.58;100.00;100875.00;2086887;28;35493;-75
2022/10/25 02:26:06;;;;;;;20.73;12.95;;;;;;;11.61;100.00;100869.56;2087864;28;29132;-75
2022/10/25 02:27:10;;;;;;;22.73;13.73;;;;;;;11.65;100.00;100875.72;2087651;28;20949;-76
2022/10/25 02:28:15;;;;;;;21.33;14.27;;;;;;;11.66;100.00;100880.16;2088120;28;32930;-75
2022/10/25 02:29:20;;;;;;;21.17;13.13;;;;;;;11.69;100.00;100879.19;2087020;28;31119;-75
2022/10/25 02:30:24;;;;;;;24.05;14.98;;;;;;;11.70;100.00;100884.53;2087191;28;30337;-75
2022/10/25 02:31:46;;;;;;;22.88;13.90;;;;;;;11.70;100.00;100879.16;2087791;28;20037;-75
2022/10/25 02:32:48;;;;;;;19.92;12.88;;;;;;;11.72;100.00;100879.09;2078457;28;34212;-75
2022/10/25 02:33:50;;;;;;;22.83;13.93;;;;;;;11.73;100.00;100876.38;2080848;28;35657;-75
2022/10/25 02:34:52;;;;;;;24.77;14.07;;;;;;;11.74;100.00;100874.59;2087856;28;31383;-75
2022/10/25 02:36:13;;;;;;;22.42;14.70;;;;;;;11.75;100.00;100877.19;2087421;28;34153;-75
2022/10/25 02:37:15;;;;;;;21.05;14.77;;;;;;;11.77;100.00;100875.38;2088240;28;20041;-75
2022/10/25 02:38:19;;;;;;;27.77;14.43;;;;;;;11.79;100.00;100880.66;2080367;28;38315;-76
2022/10/25 02:39:24;;;;;;;21.92;13.77;;;;;;;11.80;100.00;100879.75;2087243;28;33716;-75
2022/10/25 02:40:27;;;;;;;22.67;13.85;;;;;;;11.82;100.00;100877.91;2087901;28;29029;-75
2022/10/25 02:41:29;;;;;;;22.45;14.65;;;;;;;11.81;100.00;100874.34;2087516;28;29373;-75
2022/10/25 02:42:31;;;;;;;24.98;14.95;;;;;;;11.82;100.00;100875.22;2079313;28;28924;-75
2022/10/25 02:43:33;;;;;;;22.48;14.95;;;;;;;11.83;100.00;100880.56;2087629;28;30264;-75
2022/10/25 02:44:34;;;;;;;23.27;15.27;;;;;;;11.87;100.00;100881.34;2087720;28;32912;-75
2022/10/25 02:45:36;;;;;;;25.33;15.43;;;;;;;11.87;100.00;100875.97;2088897;28;20580;-75
2022/10/25 02:46:38;;;;;;;22.42;15.35;;;;;;;11.87;100.00;100875.09;2087507;28;36857;-75
2022/10/25 02:47:40;;;;;;;23.27;15.23;;;;;;;11.89;100.00;100873.25;2096022;28;24864;-75
2022/10/25 02:48:41;;;;;;;23.65;15.00;;;;;;;11.88;100.00;100875.06;2095890;28;28324;-75
2022/10/25 02:49:43;;;;;;;25.15;15.50;;;;;;;11.89;100.00;100878.63;2087026;28;33510;-75
2022/10/25 02:50:45;;;;;;;23.30;15.07;;;;;;;11.89;100.00;100879.50;2079930;28;20796;-75
2022/10/25 02:51:49;;;;;;;23.92;14.75;;;;;;;11.90;100.00;100880.34;2087203;28;28345;-75
2022/10/25 02:52:54;;;;;;;22.48;14.73;;;;;;;11.90;100.00;100883.03;2087913;28;20042;-75
2022/10/25 02:53:58;;;;;;;22.13;14.48;;;;;;;11.89;100.00;100883.97;2088206;28;20806;-75
2022/10/25 02:54:59;;;;;;;24.55;15.20;;;;;;;11.90;100.00;100877.66;2087264;28;39380;-74
2022/10/25 02:56:20;;;;;;;20.73;15.18;;;;;;;11.91;100.00;100879.47;2087548;28;38234;-75
2022/10/25 02:57:22;;;;;;;23.92;15.45;;;;;;;11.89;100.00;100876.81;2087418;28;28792;-74
2022/10/25 02:58:24;;;;;;;21.40;15.10;;;;;;;11.90;100.00;100880.34;2087918;28;40302;-75
2022/10/25 02:59:25;;;;;;;24.88;15.75;;;;;;;11.87;100.00;100881.34;2087485;28;30534;-75
2022/10/25 03:00:28;;;;;;;26.85;16.58;;;;;;;11.89;100.00;100883.97;2087045;28;36465;-75
2022/10/25 03:01:30;;;;;;;21.63;15.95;;;;;;;11.90;100.00;100885.72;2095347;28;40922;-75
2022/10/25 03:02:32;;;;;;;22.77;15.93;;;;;;;11.89;100.00;100883.97;2095194;28;29782;-75
2022/10/25 03:03:36;;;;;;;23.25;15.80;;;;;;;11.92;100.00;100878.56;2088458;28;20973;-75
2022/10/25 03:04:38;;;;;;;22.83;15.65;;;;;;;11.92;100.00;100878.56;2087775;28;28373;-75
2022/10/25 03:05:43;;;;;;;26.08;16.25;;;;;;;11.92;100.00;100878.56;2087842;28;37504;-75
2022/10/25 03:06:45;;;;;;;25.08;16.95;;;;;;;11.93;100.00;100883.00;2087186;28;30376;-75
2022/10/25 03:07:47;;;;;;;25.33;16.50;;;;;;;11.93;100.00;100873.13;2087843;28;20048;-75
2022/10/25 03:08:49;;;;;;;24.67;16.65;;;;;;;11.93;100.00;100874.94;2087684;28;37422;-75
2022/10/25 03:09:51;;;;;;;25.60;16.90;;;;;;;11.93;100.00;100881.19;2107216;22;32725;-73
2022/10/25 03:10:53;;;;;;;25.20;16.88;;;;;;;11.91;100.00;100876.78;2081460;28;36614;-73
2022/10/25 03:11:55;;;;;;;21.50;15.65;;;;;;;11.88;100.00;100882.22;2078650;28;33893;-73
2022/10/25 03:12:56;;;;;;;24.52;16.23;;;;;;;11.86;100.00;100887.63;2078389;28;24703;-73
2022/10/25 03:13:58;;;;;;;28.58;16.38;;;;;;;11.83;100.00;100891.28;2077958;28;25938;-73
2022/10/25 03:15:00;;;;;;;26.17;16.73;;;;;;;11.83;100.00;100896.66;2078253;28;33726;-73
2022/10/25 03:16:02;;;;;;;26.65;17.02;;;;;;;11.84;100.00;100893.06;2079257;28;36618;-73
2022/10/25 03:17:05;;;;;;;26.17;17.13;;;;;;;11.84;100.00;100894.84;2078106;28;31375;-73
2022/10/25 03:18:06;;;;;;;23.90;17.02;;;;;;;11.83;100.00;100896.66;2078679;28;31102;-73
2022/10/25 03:19:08;;;;;;;30.13;17.13;;;;;;;11.87;100.00;100888.53;2079174;28;20046;-73
2022/10/25 03:20:10;;;;;;;24.08;17.15;;;;;;;11.90;100.00;100896.47;2078996;28;34868;-73
2022/10/25 03:21:13;;;;;;;25.27;17.17;;;;;;;11.89;100.00;100897.41;2078881;28;36175;-73
2022/10/25 03:22:15;;;;;;;25.05;17.15;;;;;;;11.91;100.00;100890.22;2070445;28;31176;-73
2022/10/25 03:23:17;;;;;;;23.52;16.20;;;;;;;11.92;100.00;100895.53;2070675;28;36362;-73
2022/10/25 03:24:18;;;;;;;27.15;16.98;;;;;;;11.92;100.00;100891.97;2078374;28;34522;-73
2022/10/25 03:25:20;;;;;;;26.13;15.68;;;;;;;11.94;100.00;100891.00;2078733;28;35236;-72
2022/10/25 03:26:22;;;;;;;25.42;17.50;;;;;;;11.95;100.00;100886.50;2078523;28;32379;-72
2022/10/25 03:27:23;;;;;;;21.52;14.93;;;;;;;11.95;100.00;100890.09;2078112;28;34841;-73
2022/10/25 03:28:26;;;;;;;25.30;16.73;;;;;;;11.97;100.00;100895.38;2078349;28;36606;-72
2022/10/25 03:29:28;;;;;;;26.10;16.73;;;;;;;11.98;100.00;100894.47;2070083;28;31915;-73
2022/10/25 03:30:32;;;;;;;26.83;16.77;;;;;;;11.99;100.00;100890.88;2078825;28;35475;-73
2022/10/25 03:31:34;;;;;;;23.92;16.83;;;;;;;12.00;100.00;100893.50;2086062;28;26828;-73
2022/10/25 03:32:36;;;;;;;26.33;15.95;;;;;;;12.02;100.00;100896.13;2079055;28;36182;-73
2022/10/25 03:33:38;;;;;;;26.05;16.77;;;;;;;12.04;100.00;100888.91;2079426;28;26215;-72
2022/10/25 03:34:40;;;;;;;23.90;16.63;;;;;;;12.04;100.00;100899.66;2079076;28;29694;-72
2022/10/25 03:35:42;;;;;;;23.50;15.90;;;;;;;12.05;100.00;100893.38;2079488;28;20042;-72
2022/10/25 03:36:44;;;;;;;23.00;16.08;;;;;;;12.07;100.00;100901.38;2077820;28;41056;-72
2022/10/25 03:37:48;;;;;;;24.52;17.00;;;;;;;12.08;100.00;100895.06;2078633;28;34221;-73
2022/10/25 03:38:49;;;;;;;24.92;16.23;;;;;;;12.08;100.00;100895.06;2079275;28;32031;-73
2022/10/25 03:39:53;;;;;;;24.23;15.52;;;;;;;12.09;100.00;100894.16;2079793;28;38075;-72
2022/10/25 03:40:54;;;;;;;25.67;17.08;;;;;;;12.09;100.00;100892.34;2081585;28;38416;-73
2022/10/25 03:41:56;;;;;;;28.15;17.63;;;;;;;12.09;100.00;100897.72;2080715;28;37886;-74
2022/10/25 03:42:58;;;;;;;28.13;16.17;;;;;;;12.09;100.00;100902.22;2081496;28;33298;-73
2022/10/25 03:43:59;;;;;;;29.98;17.33;;;;;;;12.09;100.00;100896.84;2088368;28;29935;-73
2022/10/25 03:45:01;;;;;;;23.98;16.80;;;;;;;12.10;100.00;100903.97;2087111;28;40085;-72
2022/10/25 03:46:05;;;;;;;28.40;17.65;;;;;;;12.11;100.00;100905.72;2080025;28;20214;-72
2022/10/25 03:47:07;;;;;;;28.17;16.63;;;;;;;12.10;100.00;100898.59;2079370;28;33101;-73
2022/10/25 03:48:09;;;;;;;26.42;16.55;;;;;;;12.10;100.00;100903.97;2079949;28;37961;-72
2022/10/25 03:49:11;;;;;;;26.88;17.15;;;;;;;12.09;100.00;100905.75;2080891;28;20074;-72
2022/10/25 03:50:13;;;;;;;30.45;18.00;;;;;;;12.10;100.00;100912.03;2080156;28;39868;-73
2022/10/25 03:51:14;;;;;;;26.10;17.80;;;;;;;12.10;100.00;100912.91;2080667;28;20815;-73
2022/10/25 03:52:16;;;;;;;24.33;17.60;;;;;;;12.09;100.00;100908.44;2080735;28;33940;-74
2022/10/25 03:53:19;;;;;;;23.80;17.73;;;;;;;12.10;100.00;100909.34;2080536;28;20038;-73
2022/10/25 03:54:20;;;;;;;26.92;16.92;;;;;;;12.09;100.00;100911.13;2080944;28;20049;-74
2022/10/25 03:55:23;;;;;;;26.60;17.77;;;;;;;12.10;100.00;100909.34;2079847;28;38148;-73
2022/10/25 03:56:25;;;;;;;29.80;18.98;;;;;;;12.09;100.00;100910.25;2080421;28;33408;-73
2022/10/25 03:57:27;;;;;;;25.80;18.35;;;;;;;12.11;100.00;100911.09;2080833;28;20049;-72
2022/10/25 03:58:31;;;;;;;25.48;17.50;;;;;;;12.10;100.00;100910.22;2080057;28;31861;-74
2022/10/25 03:59:33;;;;;;;26.90;17.30;;;;;;;12.09;100.00;100913.81;2079002;28;32876;-74
2022/10/25 04:00:34;;;;;;;29.27;17.77;;;;;;;12.10;100.00;100914.72;2079201;28;35102;-73
2022/10/25 04:01:36;;;;;;;27.98;17.38;;;;;;;12.09;100.00;100911.13;2080391;28;33340;-73
2022/10/25 04:02:39;;;;;;;27.63;17.83;;;;;;;12.09;100.00;100924.53;2087608;28;37291;-74
2022/10/25 04:03:42;;;;;;;24.45;17.15;;;;;;;12.09;100.00;100924.53;2087713;28;37674;-73
2022/10/25 04:04:44;;;;;;;26.40;17.83;;;;;;;12.09;100.00;100919.19;2086967;28;33946;-73
2022/10/25 04:05:46;;;;;;;24.83;17.50;;;;;;;12.11;100.00;100917.31;2080087;28;36639;-73
2022/10/25 04:06:47;;;;;;;26.80;17.98;;;;;;;12.09;100.00;100919.19;2080351;28;29796;-73
2022/10/25 04:07:49;;;;;;;26.13;18.50;;;;;;;12.10;100.00;100920.94;2080203;28;33616;-72
2022/10/25 04:08:51;;;;;;;26.85;18.20;;;;;;;12.10;100.00;100928.13;2081100;28;20034;-73
2022/10/25 04:09:53;;;;;;;29.60;18.85;;;;;;;12.10;100.00;100926.31;2079585;28;37158;-72
2022/10/25 04:10:55;;;;;;;27.00;17.75;;;;;;;12.10;100.00;100925.44;2080662;28;28103;-73
2022/10/25 04:11:56;;;;;;;26.55;17.95;;;;;;;12.09;100.00;100929.91;2080741;28;20834;-72
2022/10/25 04:12:58;;;;;;;25.50;17.50;;;;;;;12.09;100.00;100924.53;2082569;28;33662;-72
2022/10/25 04:14:00;;;;;;;28.13;18.10;;;;;;;12.10;100.00;100925.44;2080204;28;37400;-71
2022/10/25 04:15:02;;;;;;;29.13;17.58;;;;;;;12.09;100.00;100924.53;2079972;28;39996;-73
2022/10/25 04:16:06;;;;;;;28.38;18.63;;;;;;;12.10;100.00;100926.31;2087258;28;36209;-72
2022/10/25 04:17:08;;;;;;;26.45;18.48;;;;;;;12.10;100.00;100930.81;2087506;28;29826;-72
2022/10/25 04:18:10;;;;;;;30.35;18.25;;;;;;;12.10;100.00;100925.44;2080357;28;31195;-71
2022/10/25 04:19:11;;;;;;;25.33;16.75;;;;;;;12.10;100.00;100928.13;2080513;28;32616;-72
2022/10/25 04:20:13;;;;;;;29.65;17.45;;;;;;;12.09;100.00;100932.59;2079957;28;35719;-72
2022/10/25 04:21:15;;;;;;;26.38;18.85;;;;;;;12.10;100.00;100936.19;2088205;28;33609;-72
2022/10/25 04:22:17;;;;;;;25.30;17.65;;;;;;;12.10;100.00;100930.81;2087471;28;37524;-74
2022/10/25 04:23:19;;;;;;;26.48;17.35;;;;;;;12.10;100.00;100925.44;2080265;28;33115;-72
2022/10/25 04:24:21;;;;;;;29.30;17.60;;;;;;;12.09;100.00;100935.28;2079821;28;35063;-73
2022/10/25 04:25:26;;;;;;;25.10;16.80;;;;;;;12.11;100.00;100933.44;2080040;28;32813;-72
2022/10/25 04:26:28;;;;;;;28.85;17.75;;;;;;;12.11;100.00;100932.56;2087287;28;38469;-72
2022/10/25 04:27:30;;;;;;;31.63;18.83;;;;;;;12.10;100.00;100929.00;2087926;28;20057;-72
2022/10/25 04:28:31;;;;;;;29.73;17.13;;;;;;;12.10;100.00;100930.81;2088073;28;34529;-73
2022/10/25 04:29:33;;;;;;;27.73;18.05;;;;;;;12.10;100.00;100929.00;2087380;28;34733;-72
2022/10/25 04:30:35;;;;;;;27.73;16.85;;;;;;;12.11;100.00;100932.56;2087209;28;36634;-72
2022/10/25 04:31:40;;;;;;;25.05;16.23;;;;;;;12.11;100.00;100933.44;2080671;28;20128;-73
2022/10/25 04:32:42;;;;;;;27.08;17.25;;;;;;;12.11;100.00;100930.75;2071423;28;38896;-71
2022/10/25 04:33:47;;;;;;;32.35;16.90;;;;;;;12.11;100.00;100936.09;2072002;28;32528;-72
2022/10/25 04:34:49;;;;;;;25.98;16.45;;;;;;;12.12;100.00;100932.50;2070787;28;32794;-72
2022/10/25 04:35:56;;;;;;;24.58;16.92;;;;;;;12.12;100.00;100935.19;2072288;28;20085;-73
2022/10/25 04:36:58;;;;;;;28.08;16.52;;;;;;;12.13;100.00;100936.97;2078393;28;41594;-72
2022/10/25 04:37:59;;;;;;;24.58;14.70;;;;;;;12.13;100.00;100934.28;2071674;28;28416;-72
2022/10/25 04:39:03;;;;;;;25.05;16.83;;;;;;;12.14;100.00;100933.34;2079358;28;31946;-71
2022/10/25 04:40:06;;;;;;;29.33;17.10;;;;;;;12.14;100.00;100930.66;2073230;28;20038;-72
2022/10/25 04:41:09;;;;;;;27.92;16.15;;;;;;;12.15;100.00;100934.22;2079753;28;20131;-73
2022/10/25 04:42:11;;;;;;;25.05;15.90;;;;;;;12.15;100.00;100940.50;2079690;28;35647;-72
2022/10/25 04:43:12;;;;;;;25.60;15.55;;;;;;;12.15;100.00;100940.50;2080059;28;30357;-72
2022/10/25 04:44:14;;;;;;;26.42;15.77;;;;;;;12.15;100.00;100935.13;2073014;28;31337;-72
2022/10/25 04:45:16;;;;;;;25.42;15.73;;;;;;;12.15;100.00;100934.22;2079499;28;40262;-71
2022/10/25 04:46:19;;;;;;;26.83;15.77;;;;;;;12.15;100.00;100937.81;2071883;28;20049;-73
2022/10/25 04:47:23;;;;;;;24.58;14.32;;;;;;;12.14;100.00;100933.34;2071525;28;35330;-73
2022/10/25 04:48:24;;;;;;;22.95;15.38;;;;;;;12.18;100.00;100943.06;2078856;28;33472;-74
2022/10/25 04:49:26;;;;;;;24.35;15.90;;;;;;;12.18;100.00;100943.06;2079449;28;27605;-74
2022/10/25 04:50:28;;;;;;;29.85;15.85;;;;;;;12.18;100.00;100944.88;2079198;28;33744;-72
2022/10/25 04:51:33;;;;;;;27.13;15.90;;;;;;;12.19;100.00;100935.91;2079496;28;22730;-72
2022/10/25 04:52:34;;;;;;;26.20;15.18;;;;;;;12.18;100.00;100944.88;2078457;28;37694;-73
2022/10/25 04:53:36;;;;;;;25.02;15.68;;;;;;;12.19;100.00;100941.28;2071984;28;32615;-73
2022/10/25 04:54:38;;;;;;;26.67;15.80;;;;;;;12.19;100.00;100939.47;2071834;28;32928;-73
2022/10/25 04:55:40;;;;;;;23.67;15.63;;;;;;;12.21;100.00;100939.41;2071714;28;27953;-72
2022/10/25 04:56:41;;;;;;;25.65;15.60;;;;;;;12.20;100.00;100940.34;2071975;28;39736;-73
2022/10/25 04:57:43;;;;;;;23.88;14.75;;;;;;;12.19;100.00;100942.16;2078459;28;20025;-73
2022/10/25 04:58:47;;;;;;;29.55;15.77;;;;;;;12.20;100.00;100943.91;2079692;28;32053;-72
2022/10/25 04:59:49;;;;;;;24.98;15.48;;;;;;;12.20;100.00;100951.97;2078356;28;30821;-72
2022/10/25 05:00:53;;;;;;;26.45;16.38;;;;;;;12.21;100.00;100953.72;2079654;28;34653;-72
2022/10/25 05:01:55;;;;;;;26.95;15.55;;;;;;;12.21;100.00;100942.97;2078990;28;38547;-71